< < Back
Terminal Aerodrome Forecast


Current Version              Previous Versions:   1  2  3  4  5  6  7  8  9  

Terminal Aerodrome Forecast

305
FTUS42 KGSP 220300 AAA
TAFGSP
TAF AMD
KGSP 220315Z 2203/2224 36010G20KT P6SM SKC
     FM220600 36007KT P6SM SKC=

Latest METAR

734
SAUS70 KWBC 230200 RRE
MTRGSP
METAR KGSP 230153Z AUTO 35003KT 10SM CLR 10/04 A3011 RMK AO2 SLP192
T01000044


USA.gov is the U.S. government's official web portal to all federal, state and local government web resources and services.